createdAt,value
2017-10-07T00:02:09.559Z,99499.09
2017-10-07T00:04:37.183Z,99501.56
2017-10-07T00:07:04.838Z,99491.09
2017-10-07T00:09:32.504Z,99481.97
2017-10-07T00:12:00.123Z,99482.16
2017-10-07T00:14:27.852Z,99479.47
2017-10-07T00:16:55.481Z,99472.40
2017-10-07T00:19:23.099Z,99476.34
2017-10-07T00:21:50.823Z,99467.41
2017-10-07T00:24:18.491Z,99472.02
2017-10-07T00:26:46.108Z,99465.17
2017-10-07T00:29:13.825Z,99470.48
2017-10-07T00:31:41.499Z,99472.57
2017-10-07T00:34:09.200Z,99465.51
2017-10-07T00:36:36.942Z,99467.47
2017-10-07T00:39:04.647Z,99463.83
2017-10-07T00:41:32.314Z,99457.51
2017-10-07T00:43:59.966Z,99455.23
2017-10-07T00:46:27.587Z,99449.00
2017-10-07T00:48:55.197Z,99442.45
2017-10-07T00:51:22.859Z,99444.22
2017-10-07T00:53:50.466Z,99448.91
2017-10-07T00:56:18.086Z,99444.33
2017-10-07T00:58:45.820Z,99442.58
2017-10-07T01:01:13.447Z,99438.84
2017-10-07T01:03:41.114Z,99435.83
2017-10-07T01:06:08.836Z,99442.06
2017-10-07T01:08:36.503Z,99437.37
2017-10-07T01:11:04.103Z,99437.06
2017-10-07T01:13:31.787Z,99440.91
2017-10-07T01:15:59.439Z,99435.20
2017-10-07T01:18:27.045Z,99438.41
2017-10-07T01:20:54.783Z,99436.84
2017-10-07T01:23:22.447Z,99428.97
2017-10-07T01:25:50.067Z,99425.95
2017-10-07T01:28:17.967Z,99430.52
2017-10-07T01:30:45.571Z,99429.47
2017-10-07T01:33:13.247Z,99434.08
2017-10-07T01:35:40.919Z,99438.52
2017-10-07T01:38:08.595Z,99434.57
2017-10-07T01:40:36.211Z,99422.31
2017-10-07T01:43:03.878Z,99425.54
2017-10-07T01:45:31.559Z,99435.59
2017-10-07T01:47:59.154Z,99426.48
2017-10-07T01:50:26.859Z,99414.94
2017-10-07T01:52:54.470Z,99421.69
2017-10-07T01:55:22.092Z,99427.64
2017-10-07T01:57:49.751Z,99422.27
2017-10-07T02:00:17.425Z,99415.00
2017-10-07T02:02:45.035Z,99411.65
2017-10-07T02:05:12.748Z,99412.27
2017-10-07T02:07:40.359Z,99408.33
2017-10-07T02:10:07.985Z,99410.20
2017-10-07T02:12:35.684Z,99422.34
2017-10-07T02:15:03.343Z,99419.86
2017-10-07T02:17:31.012Z,99417.46
2017-10-07T02:19:58.679Z,99427.33
2017-10-07T02:22:26.285Z,99430.73
2017-10-07T02:24:53.947Z,99429.08
2017-10-07T02:27:21.599Z,99432.20
2017-10-07T02:29:49.207Z,99433.41
2017-10-07T02:32:16.811Z,99430.31
2017-10-07T02:34:44.455Z,99433.52
2017-10-07T02:37:12.120Z,99430.08
2017-10-07T02:39:39.792Z,99427.28
2017-10-07T02:42:07.492Z,99430.59
2017-10-07T02:44:35.104Z,99428.30
2017-10-07T02:47:02.714Z,99420.09
2017-10-07T02:49:30.372Z,99424.66
2017-10-07T02:51:58.050Z,99431.28
2017-10-07T02:54:25.735Z,99428.59
2017-10-07T02:56:53.422Z,99426.30
2017-10-07T02:59:21.028Z,99420.17
2017-10-07T03:01:48.632Z,99423.19
2017-10-07T03:04:16.299Z,99422.16
2017-10-07T03:06:43.914Z,99431.82
2017-10-07T03:09:11.528Z,99426.62
2017-10-07T03:11:39.176Z,99428.56
2017-10-07T03:14:06.847Z,99425.47
2017-10-07T03:16:34.516Z,99417.67
2017-10-07T03:19:02.263Z,99417.17
2017-10-07T03:21:29.863Z,99419.73
2017-10-07T03:23:57.483Z,99416.75
2017-10-07T03:26:25.182Z,99414.55
2017-10-07T03:28:52.792Z,99408.02
2017-10-07T03:31:20.390Z,99421.50
2017-10-07T03:33:48.137Z,99421.30
2017-10-07T03:36:15.742Z,99419.22
2017-10-07T03:38:43.423Z,99408.34
2017-10-07T03:41:11.127Z,99397.02
2017-10-07T03:43:38.795Z,99395.25
2017-10-07T03:46:06.459Z,99405.31
2017-10-07T03:48:34.135Z,99407.70
2017-10-07T03:51:01.747Z,99400.84
2017-10-07T03:53:29.404Z,99395.44
2017-10-07T03:55:57.107Z,99396.67
2017-10-07T03:58:24.715Z,99396.55
2017-10-07T04:00:52.319Z,99391.36
2017-10-07T04:03:20.057Z,99372.16
2017-10-07T04:05:47.668Z,99368.02
2017-10-07T04:08:15.335Z,99374.78
2017-10-07T04:10:43.050Z,99385.86
2017-10-07T04:13:10.652Z,99399.34
2017-10-07T04:15:38.255Z,99414.59
2017-10-07T04:18:05.967Z,99424.66
2017-10-07T04:20:33.634Z,99451.14
2017-10-07T04:23:01.247Z,99458.30
2017-10-07T04:25:28.959Z,99459.25
2017-10-07T04:27:56.570Z,99460.28
2017-10-07T04:30:24.179Z,99458.63
2017-10-07T04:32:51.896Z,99465.06
2017-10-07T04:35:19.580Z,99445.91
2017-10-07T04:37:47.251Z,99431.19
2017-10-07T04:40:14.907Z,99425.89
2017-10-07T04:42:42.517Z,99430.74
2017-10-07T04:45:10.127Z,99432.09
2017-10-07T04:47:37.847Z,99419.23
2017-10-07T04:50:05.459Z,99431.97
2017-10-07T04:52:33.062Z,99430.94
2017-10-07T04:55:00.714Z,99438.91
2017-10-07T04:57:28.332Z,99439.84
2017-10-07T04:59:55.999Z,99428.52
2017-10-07T05:02:23.713Z,99426.34
2017-10-07T05:04:51.323Z,99426.50
2017-10-07T05:07:19.048Z,99413.83
2017-10-07T05:09:46.791Z,99409.15
2017-10-07T05:12:14.403Z,99406.14
2017-10-07T05:14:42.073Z,99403.45
2017-10-07T05:17:09.796Z,99396.14
2017-10-07T05:19:37.409Z,99405.86
2017-10-07T05:22:05.083Z,99403.16
2017-10-07T05:24:32.745Z,99400.38
2017-10-07T05:27:00.464Z,99396.78
2017-10-07T05:29:28.062Z,99406.59
2017-10-07T05:31:55.712Z,99409.29
2017-10-07T05:34:23.307Z,99409.09
2017-10-07T05:36:50.913Z,99417.31
2017-10-07T05:39:18.636Z,99419.01
2017-10-07T05:41:46.244Z,99416.13
2017-10-07T05:44:13.843Z,99420.52
2017-10-07T05:46:41.499Z,99409.00
2017-10-07T05:49:09.112Z,99409.29
2017-10-07T05:51:36.775Z,99403.71
2017-10-07T05:54:04.426Z,99406.09
2017-10-07T05:56:32.029Z,99398.80
2017-10-07T05:58:59.687Z,99391.36
2017-10-07T06:01:27.496Z,99394.34
2017-10-07T06:03:55.232Z,99391.78
2017-10-07T06:06:22.869Z,99391.36
2017-10-07T06:08:50.634Z,99396.07
2017-10-07T06:11:19.198Z,99406.66
2017-10-07T06:13:46.947Z,99409.34
2017-10-07T06:16:14.692Z,99404.38
2017-10-07T06:18:42.391Z,99400.24
2017-10-07T06:21:10.047Z,99401.04
2017-10-07T06:23:37.832Z,99389.63
2017-10-07T06:26:05.516Z,99380.94
2017-10-07T06:28:33.156Z,99386.80
2017-10-07T06:31:00.876Z,99383.41
2017-10-07T06:33:28.588Z,99382.44
2017-10-07T06:35:56.187Z,99380.87
2017-10-07T06:38:23.924Z,99384.30
2017-10-07T06:40:51.546Z,99383.66
2017-10-07T06:43:19.259Z,99370.52
2017-10-07T06:45:46.999Z,99370.83
2017-10-07T06:48:14.613Z,99369.72
2017-10-07T06:50:42.300Z,99376.86
2017-10-07T06:53:09.954Z,99366.00
2017-10-07T06:55:37.639Z,99365.12
2017-10-07T06:58:05.314Z,99371.45
2017-10-07T07:00:33.023Z,99377.98
2017-10-07T07:03:00.724Z,99383.87
2017-10-07T07:05:28.368Z,99398.42
2017-10-07T07:07:56.031Z,99378.17
2017-10-07T07:10:23.657Z,99362.44
2017-10-07T07:12:51.267Z,99354.13
2017-10-07T07:15:19.012Z,99346.19
2017-10-07T07:17:46.626Z,99353.11
2017-10-07T07:20:14.259Z,99351.86
2017-10-07T07:22:41.922Z,99366.61
2017-10-07T07:25:09.530Z,99373.59
2017-10-07T07:27:37.216Z,99373.95
2017-10-07T07:30:04.975Z,99375.20
2017-10-07T07:32:32.652Z,99382.23
2017-10-07T07:35:00.286Z,99381.26
2017-10-07T07:37:28.036Z,99367.82
2017-10-07T07:39:55.647Z,99341.92
2017-10-07T07:42:23.244Z,99343.39
2017-10-07T07:44:50.912Z,99343.13
2017-10-07T07:47:18.576Z,99346.78
2017-10-07T07:49:46.204Z,99361.80
2017-10-07T07:52:13.937Z,99362.58
2017-10-07T07:54:41.583Z,99371.27
2017-10-07T07:57:09.251Z,99373.77
2017-10-07T07:59:36.920Z,99390.78
2017-10-07T08:02:04.530Z,99401.13
2017-10-07T08:04:32.136Z,99386.98
2017-10-07T08:06:59.853Z,99391.30
2017-10-07T08:09:27.479Z,99393.20
2017-10-07T08:11:55.104Z,99373.53
2017-10-07T08:14:22.750Z,99356.23
2017-10-07T08:16:50.420Z,99333.77
2017-10-07T08:19:18.036Z,99319.39
2017-10-07T08:21:45.691Z,99306.87
2017-10-07T08:24:13.358Z,99289.13
2017-10-07T08:26:40.978Z,99289.36
2017-10-07T08:29:08.699Z,99302.40
2017-10-07T08:31:36.363Z,99315.61
2017-10-07T08:34:04.024Z,99320.05
2017-10-07T08:36:31.784Z,99324.80
2017-10-07T08:38:59.447Z,99337.91
2017-10-07T08:41:27.064Z,99335.45
2017-10-07T08:43:54.787Z,99338.55
2017-10-07T08:46:22.387Z,99351.41
2017-10-07T08:48:50.067Z,99364.86
2017-10-07T08:51:17.710Z,99368.45
2017-10-07T08:53:45.390Z,99380.38
2017-10-07T08:56:13.051Z,99385.00
2017-10-07T08:58:40.776Z,99369.88
2017-10-07T09:01:08.452Z,99380.41
2017-10-07T09:03:36.124Z,99388.81
2017-10-07T09:06:03.853Z,99377.11
2017-10-07T09:08:31.576Z,99397.44
2017-10-07T09:10:59.187Z,99429.48
2017-10-07T09:13:26.836Z,99443.81
2017-10-07T09:15:54.450Z,99432.11
2017-10-07T09:18:22.066Z,99395.95
2017-10-07T09:20:49.722Z,99371.41
2017-10-07T09:23:17.334Z,99372.56
2017-10-07T09:25:44.944Z,99381.89
2017-10-07T09:28:12.622Z,99411.09
2017-10-07T09:30:40.241Z,99446.09
2017-10-07T09:33:07.905Z,99463.50
2017-10-07T09:35:35.625Z,99466.56
2017-10-07T09:38:03.349Z,99462.91
2017-10-07T09:40:30.959Z,99473.66
2017-10-07T09:42:58.619Z,99458.95
2017-10-07T09:45:26.288Z,99430.59
2017-10-07T09:47:53.894Z,99411.00
2017-10-07T09:50:21.540Z,99412.57
2017-10-07T09:52:49.141Z,99411.55
2017-10-07T09:55:16.739Z,99418.19
2017-10-07T09:57:44.454Z,99404.72
2017-10-07T10:00:12.062Z,99399.98
2017-10-07T10:02:39.720Z,99399.31
2017-10-07T10:05:07.432Z,99403.67
2017-10-07T10:07:35.055Z,99412.27
2017-10-07T10:10:02.723Z,99421.88
2017-10-07T10:12:30.441Z,99446.17
2017-10-07T10:14:58.048Z,99439.30
2017-10-07T10:17:25.714Z,99426.07
2017-10-07T10:19:53.448Z,99438.47
2017-10-07T10:22:21.055Z,99459.86
2017-10-07T10:24:48.727Z,99465.67
2017-10-07T10:27:16.427Z,99460.89
2017-10-07T10:29:44.025Z,99466.33
2017-10-07T10:32:11.632Z,99477.74
2017-10-07T10:34:39.344Z,99478.22
2017-10-07T10:37:06.955Z,99470.66
2017-10-07T10:39:34.642Z,99451.89
2017-10-07T10:42:02.308Z,99441.44
2017-10-07T10:44:29.967Z,99450.72
2017-10-07T10:46:57.628Z,99461.64
2017-10-07T10:49:25.283Z,99480.82
2017-10-07T10:51:52.947Z,99489.41
2017-10-07T10:54:20.613Z,99505.51
2017-10-07T10:56:48.295Z,99499.95
2017-10-07T10:59:15.914Z,99496.27
2017-10-07T11:01:43.579Z,99488.66
2017-10-07T11:04:11.255Z,99476.21
2017-10-07T11:06:38.920Z,99474.17
2017-10-07T11:09:06.595Z,99473.43
2017-10-07T11:11:34.307Z,99474.77
2017-10-07T11:14:01.976Z,99484.79
2017-10-07T11:16:29.585Z,99478.16
2017-10-07T11:18:57.306Z,99463.62
2017-10-07T11:21:24.915Z,99467.94
2017-10-07T11:23:52.518Z,99473.09
2017-10-07T11:26:20.162Z,99468.23
2017-10-07T11:28:47.771Z,99465.41
2017-10-07T11:31:15.375Z,99471.77
2017-10-07T11:33:43.032Z,99465.40
2017-10-07T11:36:10.639Z,99462.02
2017-10-07T11:38:38.252Z,99453.47
2017-10-07T11:41:05.930Z,99457.83
2017-10-07T11:43:33.591Z,99465.80
2017-10-07T11:46:01.193Z,99472.27
2017-10-07T11:48:28.855Z,99473.56
2017-10-07T11:50:56.472Z,99462.70
2017-10-07T11:53:24.084Z,99455.57
2017-10-07T11:55:51.747Z,99453.05
2017-10-07T11:58:19.351Z,99453.94
2017-10-07T12:00:46.958Z,99452.86
2017-10-07T12:03:14.636Z,99451.85
2017-10-07T12:05:42.341Z,99450.68
2017-10-07T12:08:12.743Z,99458.89
2017-10-07T12:10:37.712Z,99468.84
2017-10-07T12:13:05.384Z,99465.97
2017-10-07T12:15:33.003Z,99458.92
2017-10-07T12:18:00.968Z,99469.27
2017-10-07T12:20:28.571Z,99474.57
2017-10-07T12:22:56.249Z,99469.74
2017-10-07T12:25:23.907Z,99475.37
2017-10-07T12:27:51.575Z,99488.27
2017-10-07T12:30:19.186Z,99488.77
2017-10-07T12:32:46.852Z,99486.45
2017-10-07T12:35:14.463Z,99484.73
2017-10-07T12:37:42.088Z,99469.22
2017-10-07T12:40:09.796Z,99462.42
2017-10-07T12:42:37.407Z,99459.91
2017-10-07T12:45:05.077Z,99438.72
2017-10-07T12:47:32.778Z,99429.90
2017-10-07T12:50:00.459Z,99427.45
2017-10-07T12:52:28.120Z,99422.47
2017-10-07T12:54:55.831Z,99433.00
2017-10-07T12:57:23.451Z,99420.89
2017-10-07T12:59:51.055Z,99412.17
2017-10-07T13:02:18.710Z,99407.44
2017-10-07T13:04:46.376Z,99406.65
2017-10-07T13:07:13.987Z,99413.24
2017-10-07T13:09:41.643Z,99411.98
2017-10-07T13:12:09.304Z,99422.05
2017-10-07T13:14:37.019Z,99422.84
2017-10-07T13:17:04.723Z,99417.50
2017-10-07T13:19:32.330Z,99407.91
2017-10-07T13:21:59.954Z,99411.43
2017-10-07T13:24:27.683Z,99422.50
2017-10-07T13:26:55.295Z,99429.13
2017-10-07T13:29:22.916Z,99448.29
2017-10-07T13:31:50.595Z,99456.22
2017-10-07T13:34:18.275Z,99462.39
2017-10-07T13:36:45.965Z,99468.69
2017-10-07T13:39:13.631Z,99475.56
2017-10-07T13:41:41.266Z,99458.67
2017-10-07T13:44:08.939Z,99445.83
2017-10-07T13:46:36.660Z,99440.27
2017-10-07T13:49:04.283Z,99446.59
2017-10-07T13:51:31.899Z,99450.34
2017-10-07T13:53:59.563Z,99443.19
2017-10-07T13:56:27.184Z,99447.64
2017-10-07T13:58:54.872Z,99446.11
2017-10-07T14:01:22.559Z,99445.18
2017-10-07T14:03:50.187Z,99449.91
2017-10-07T14:06:17.795Z,99439.89
2017-10-07T14:08:45.476Z,99422.03
2017-10-07T14:11:13.148Z,99407.52
2017-10-07T14:13:40.788Z,99405.86
2017-10-07T14:16:08.459Z,99414.98
2017-10-07T14:18:36.073Z,99409.38
2017-10-07T14:21:03.686Z,99396.29
2017-10-07T14:23:31.396Z,99404.95
2017-10-07T14:25:59.012Z,99421.27
2017-10-07T14:28:26.636Z,99425.37
2017-10-07T14:30:54.375Z,99420.41
2017-10-07T14:33:21.999Z,99415.03
2017-10-07T14:35:49.615Z,99419.59
2017-10-07T14:38:17.329Z,99418.44
2017-10-07T14:40:44.938Z,99403.75
2017-10-07T14:43:12.547Z,99413.99
2017-10-07T14:45:40.200Z,99426.27
2017-10-07T14:48:07.806Z,99435.45
2017-10-07T14:50:35.431Z,99440.98
2017-10-07T14:53:03.177Z,99446.22
2017-10-07T14:55:30.847Z,99439.45
2017-10-07T14:57:58.463Z,99440.05
2017-10-07T15:00:26.132Z,99432.89
2017-10-07T15:02:53.807Z,99444.47
2017-10-07T15:05:21.426Z,99455.25
2017-10-07T15:07:49.152Z,99454.05
2017-10-07T15:10:16.879Z,99461.45
2017-10-07T15:12:44.610Z,99461.52
2017-10-07T15:15:12.335Z,99455.90
2017-10-07T15:17:40.020Z,99441.17
2017-10-07T15:20:07.642Z,99432.78
2017-10-07T15:22:35.319Z,99440.39
2017-10-07T15:25:02.991Z,99449.80
2017-10-07T15:27:30.621Z,99437.32
2017-10-07T15:29:58.352Z,99444.67
2017-10-07T15:32:25.965Z,99441.50
2017-10-07T15:34:53.574Z,99449.88
2017-10-07T15:37:21.292Z,99448.61
2017-10-07T15:39:48.955Z,99458.20
2017-10-07T15:42:16.631Z,99452.82
2017-10-07T15:44:44.283Z,99441.27
2017-10-07T15:47:11.896Z,99438.03
2017-10-07T15:49:39.507Z,99429.70
2017-10-07T15:52:07.172Z,99417.69
2017-10-07T15:54:34.793Z,99408.02
2017-10-07T15:57:02.406Z,99404.09
2017-10-07T15:59:30.075Z,99389.91
2017-10-07T16:01:57.695Z,99389.61
2017-10-07T16:04:25.299Z,99402.39
2017-10-07T16:06:52.956Z,99412.63
2017-10-07T16:09:20.567Z,99426.03
2017-10-07T16:11:48.179Z,99426.86
2017-10-07T16:14:15.885Z,99429.19
2017-10-07T16:16:43.556Z,99441.88
2017-10-07T16:19:11.168Z,99444.38
2017-10-07T16:21:38.887Z,99429.53
2017-10-07T16:24:06.565Z,99415.95
2017-10-07T16:26:34.188Z,99417.42
2017-10-07T16:29:01.897Z,99431.78
2017-10-07T16:31:29.584Z,99422.69
2017-10-07T16:33:57.208Z,99428.55
2017-10-07T16:36:24.869Z,99437.05
2017-10-07T16:38:52.501Z,99429.14
2017-10-07T16:41:20.116Z,99431.44
2017-10-07T16:43:47.855Z,99445.62
2017-10-07T16:46:15.581Z,99462.03
2017-10-07T16:48:43.307Z,99465.05
2017-10-07T16:51:11.007Z,99450.78
2017-10-07T16:53:38.626Z,99445.20
2017-10-07T16:56:06.238Z,99431.40
2017-10-07T16:58:33.912Z,99431.74
2017-10-07T17:01:01.645Z,99441.50
2017-10-07T17:03:29.250Z,99442.09
2017-10-07T17:05:56.904Z,99445.80
2017-10-07T17:08:24.507Z,99434.27
2017-10-07T17:10:52.126Z,99414.78
2017-10-07T17:13:19.787Z,99416.16
2017-10-07T17:15:47.522Z,99418.83
2017-10-07T17:18:15.130Z,99432.59
2017-10-07T17:20:42.799Z,99437.08
2017-10-07T17:23:10.417Z,99436.23
2017-10-07T17:25:38.043Z,99433.61
2017-10-07T17:28:05.698Z,99429.58
2017-10-07T17:30:33.379Z,99436.56
2017-10-07T17:33:01.053Z,99449.14
2017-10-07T17:35:28.797Z,99458.72
2017-10-07T17:37:56.412Z,99474.23
2017-10-07T17:40:24.015Z,99476.92
2017-10-07T17:42:51.775Z,99485.34
2017-10-07T17:45:19.447Z,99488.09
2017-10-07T17:47:47.115Z,99492.95
2017-10-07T17:50:14.844Z,99481.78
2017-10-07T17:52:42.499Z,99482.30
2017-10-07T17:55:10.102Z,99472.59
2017-10-07T17:57:37.808Z,99482.33
2017-10-07T18:00:05.483Z,99481.08
2017-10-07T18:02:33.292Z,99458.06
2017-10-07T18:05:00.964Z,99437.41
2017-10-07T18:07:28.636Z,99453.23
2017-10-07T18:09:56.316Z,99458.99
2017-10-07T18:12:25.161Z,99451.30
2017-10-07T18:14:52.834Z,99458.09
2017-10-07T18:17:20.508Z,99442.77
2017-10-07T18:19:48.188Z,99441.12
2017-10-07T18:22:15.875Z,99452.81
2017-10-07T18:24:43.490Z,99469.85
2017-10-07T18:27:11.272Z,99478.15
2017-10-07T18:29:38.932Z,99498.11
2017-10-07T18:32:06.594Z,99530.19
2017-10-07T18:34:34.263Z,99536.75
2017-10-07T18:37:01.876Z,99537.66
2017-10-07T18:39:29.535Z,99526.16
2017-10-07T18:41:57.179Z,99523.14
2017-10-07T18:44:24.787Z,99521.27
2017-10-07T18:46:52.395Z,99519.00
2017-10-07T18:49:20.113Z,99523.14
2017-10-07T18:51:47.752Z,99522.48
2017-10-07T18:54:15.343Z,99539.92
2017-10-07T18:56:43.056Z,99543.11
2017-10-07T18:59:10.756Z,99533.36
2017-10-07T19:01:38.380Z,99538.34
2017-10-07T19:04:06.174Z,99533.94
2017-10-07T19:06:33.884Z,99535.30
2017-10-07T19:09:01.499Z,99539.68
2017-10-07T19:11:29.204Z,99537.30
2017-10-07T19:13:56.802Z,99543.27
2017-10-07T19:16:24.479Z,99538.52
2017-10-07T19:18:52.144Z,99524.79
2017-10-07T19:21:19.819Z,99518.58
2017-10-07T19:23:47.476Z,99508.11
2017-10-07T19:26:15.120Z,99498.08
2017-10-07T19:28:42.784Z,99490.83
2017-10-07T19:31:10.451Z,99494.70
2017-10-07T19:33:38.162Z,99498.98
2017-10-07T19:36:05.818Z,99509.97
2017-10-07T19:38:33.472Z,99518.34
2017-10-07T19:41:01.244Z,99532.59
2017-10-07T19:43:28.847Z,99539.00
2017-10-07T19:45:56.514Z,99528.68
2017-10-07T19:48:24.199Z,99518.12
2017-10-07T19:50:51.806Z,99526.41
2017-10-07T19:53:19.403Z,99515.00
2017-10-07T19:55:47.056Z,99514.34
2017-10-07T19:58:14.659Z,99520.13
2017-10-07T20:00:42.272Z,99511.23
2017-10-07T20:03:09.931Z,99504.70
2017-10-07T20:05:37.530Z,99532.36
2017-10-07T20:08:05.123Z,99531.44
2017-10-07T20:10:32.833Z,99498.55
2017-10-07T20:13:00.548Z,99502.73
2017-10-07T20:15:28.159Z,99508.12
2017-10-07T20:17:55.900Z,99533.80
2017-10-07T20:20:24.435Z,99547.64
2017-10-07T20:22:52.087Z,99555.68
2017-10-07T20:25:19.728Z,99562.98
2017-10-07T20:27:47.328Z,99551.59
2017-10-07T20:30:14.923Z,99542.69
2017-10-07T20:32:42.576Z,99524.63
2017-10-07T20:35:10.184Z,99544.50
2017-10-07T20:37:37.856Z,99560.62
2017-10-07T20:40:05.572Z,99548.33
2017-10-07T20:42:33.228Z,99516.41
2017-10-07T20:45:00.839Z,99505.20
2017-10-07T20:47:28.490Z,99493.53
2017-10-07T20:49:56.084Z,99471.31
2017-10-07T20:52:23.688Z,99458.91
2017-10-07T20:54:51.335Z,99464.98
2017-10-07T20:57:18.934Z,99456.67
2017-10-07T20:59:46.596Z,99459.36
2017-10-07T21:02:14.321Z,99456.72
2017-10-07T21:04:41.941Z,99452.84
2017-10-07T21:07:09.548Z,99455.38
2017-10-07T21:09:37.200Z,99460.25
2017-10-07T21:12:04.863Z,99450.83
2017-10-07T21:14:32.478Z,99447.81
2017-10-07T21:17:00.184Z,99450.67
2017-10-07T21:19:27.903Z,99471.12
2017-10-07T21:21:55.510Z,99470.13
2017-10-07T21:24:23.266Z,99471.45
2017-10-07T21:26:50.915Z,99468.77
2017-10-07T21:29:18.588Z,99461.17
2017-10-07T21:31:46.284Z,99449.31
2017-10-07T21:34:13.951Z,99439.58
2017-10-07T21:36:41.664Z,99436.90
2017-10-07T21:39:09.388Z,99422.31
2017-10-07T21:41:37.043Z,99402.84
2017-10-07T21:44:04.747Z,99384.68
2017-10-07T21:46:32.440Z,99373.77
2017-10-07T21:49:00.047Z,99378.89
2017-10-07T21:51:27.651Z,99393.98
2017-10-07T21:53:55.287Z,99399.59
2017-10-07T21:56:22.886Z,99398.42
2017-10-07T21:58:50.479Z,99393.70
2017-10-07T22:01:18.128Z,99396.63
2017-10-07T22:03:45.734Z,99398.50
2017-10-07T22:06:13.339Z,99419.97
2017-10-07T22:08:40.983Z,99437.85
2017-10-07T22:11:08.571Z,99448.73
2017-10-07T22:13:36.223Z,99467.34
2017-10-07T22:16:03.924Z,99476.65
2017-10-07T22:18:31.592Z,99473.79
2017-10-07T22:20:59.239Z,99487.20
2017-10-07T22:23:26.899Z,99495.36
2017-10-07T22:25:54.490Z,99514.05
2017-10-07T22:28:22.149Z,99520.31
2017-10-07T22:30:49.844Z,99525.94
2017-10-07T22:33:17.445Z,99527.94
2017-10-07T22:35:45.040Z,99534.48
2017-10-07T22:38:12.692Z,99532.50
2017-10-07T22:40:40.295Z,99543.36
2017-10-07T22:43:07.903Z,99550.73
2017-10-07T22:45:35.547Z,99549.39
2017-10-07T22:48:03.142Z,99545.08
2017-10-07T22:50:30.741Z,99533.27
2017-10-07T22:52:58.399Z,99543.80
2017-10-07T22:55:26.012Z,99534.66
2017-10-07T22:57:53.627Z,99532.91
2017-10-07T23:00:21.268Z,99544.34
2017-10-07T23:02:48.862Z,99539.64
2017-10-07T23:05:16.515Z,99538.56
2017-10-07T23:07:44.169Z,99538.86
2017-10-07T23:10:11.762Z,99545.48
2017-10-07T23:12:39.356Z,99549.00
2017-10-07T23:15:07.024Z,99554.53
2017-10-07T23:17:34.678Z,99559.80
2017-10-07T23:20:02.295Z,99551.64
2017-10-07T23:22:33.880Z,99551.62
2017-10-07T23:25:01.486Z,99547.95
2017-10-07T23:27:29.081Z,99551.59
2017-10-07T23:29:56.743Z,99546.86
2017-10-07T23:32:24.343Z,99541.84
2017-10-07T23:34:52.009Z,99559.31
2017-10-07T23:37:19.726Z,99547.25
2017-10-07T23:39:47.329Z,99546.58
2017-10-07T23:42:14.995Z,99552.57
2017-10-07T23:44:42.694Z,99539.08
2017-10-07T23:47:10.299Z,99550.14
2017-10-07T23:49:37.906Z,99548.50
2017-10-07T23:52:05.563Z,99546.75
2017-10-07T23:54:33.219Z,99549.17
2017-10-07T23:57:00.815Z,99550.69
2017-10-07T23:59:28.454Z,99548.70
